Terminal Aerodrome Forecast
Issued by NWS

Home | Current Version | Previous Version | Text Only | Print | Product List | Glossary On
Versions: 1 2 3 4 5 6 7 8 9 10 11 12 13 14 15 16
000
FTUS46 KSGX 021123
TAFSNA
TAF
KSNA 021123Z 0212/0312 VRB04KT P6SM OVC024
     FM021730 VRB06KT P6SM SCT025 SCT250
     FM021900 22010KT P6SM FEW025 SCT250
     FM030200 VRB04KT P6SM FEW020 SCT250
     FM030400 VRB04KT P6SM BKN020=

USA.gov is the U.S. government's official web portal to all federal, state and local government web resources and services.